Time;durP1;ratioP1;P1;durP2;ratioP2;P2;SDS_P1;SDS_P2;PMS_P1;PMS_P2;Temp;Humidity;BMP_temperature;BMP_pressure;BME280_temperature;BME280_humidity;BME280_pressure;Samples;Min_cycle;Max_cycle;Signal;HPM_P1;HPM_P2
2023/03/22 00:09:48;;;;;;;24.53;12.00;;;;;;;9.49;100.00;100182.47;31202953;28;20064;-74
2023/03/22 00:24:50;;;;;;;21.73;11.40;;;;;;;9.49;100.00;100182.47;31211317;28;20463;-73
2023/03/22 00:39:51;;;;;;;26.93;10.90;;;;;;;9.56;100.00;100193.22;31198285;28;20499;-73
2023/03/22 00:54:54;;;;;;;26.30;10.47;;;;;;;9.66;100.00;100169.84;31209653;28;20499;-74
2023/03/22 01:09:56;;;;;;;24.43;10.80;;;;;;;9.58;100.00;100174.59;31212625;28;20065;-73
2023/03/22 01:24:58;;;;;;;36.87;15.43;;;;;;;9.43;100.00;100184.13;31229794;28;20045;-74
2023/03/22 01:40:00;;;;;;;69.47;27.47;;;;;;;9.34;100.00;100178.44;31212308;28;20060;-74
2023/03/22 01:55:05;;;;;;;31.30;15.00;;;;;;;9.32;100.00;100183.50;31212974;28;20111;-73
2023/03/22 02:10:20;;;;;;;31.77;15.30;;;;;;;9.45;100.00;100198.00;31230855;28;20504;-74
2023/03/22 02:25:45;;;;;;;34.53;15.63;;;;;;;9.49;100.00;100207.63;31223996;28;20042;-75
2023/03/22 02:41:09;;;;;;;28.33;15.07;;;;;;;9.44;100.00;100213.53;31204864;28;20085;-73
2023/03/22 02:56:24;;;;;;;33.50;14.30;;;;;;;9.39;100.00;100218.63;31218503;28;20058;-74
2023/03/22 03:11:26;;;;;;;32.27;15.03;;;;;;;9.51;100.00;100223.47;31210003;28;20053;-79
2023/03/22 03:26:40;;;;;;;35.27;14.47;;;;;;;9.70;100.00;100222.81;31191868;28;20521;-78
2023/03/22 03:41:47;;;;;;;27.23;12.97;;;;;;;9.59;100.00;100235.78;31205965;28;20103;-78
2023/03/22 03:56:49;;;;;;;30.37;12.67;;;;;;;9.54;100.00;100245.13;31219474;28;20168;-78
2023/03/22 04:11:53;;;;;;;31.43;13.00;;;;;;;9.42;100.00;100248.38;31208375;28;20061;-80
2023/03/22 04:26:54;;;;;;;27.60;13.03;;;;;;;9.59;100.00;100265.59;31227316;28;20041;-80
2023/03/22 04:41:56;;;;;;;28.83;13.27;;;;;;;9.57;100.00;100276.81;31250292;28;20061;-79
2023/03/22 04:56:59;;;;;;;28.73;15.07;;;;;;;9.71;100.00;100283.22;31269663;28;20054;-78
2023/03/22 05:12:01;;;;;;;34.60;16.57;;;;;;;9.85;100.00;100291.97;31242454;28;20053;-79
2023/03/22 05:27:04;;;;;;;32.97;16.97;;;;;;;10.85;100.00;100296.63;31263734;28;20041;-79
2023/03/22 05:42:14;;;;;;;32.00;14.07;;;;;;;12.10;100.00;100318.59;31206362;28;20053;-81
2023/03/22 05:57:17;;;;;;;33.70;13.77;;;;;;;13.39;100.00;100325.16;31218355;28;20065;-80
2023/03/22 06:12:23;;;;;;;32.10;15.17;;;;;;;14.26;100.00;100329.19;31197155;28;20104;-81
2023/03/22 06:27:25;;;;;;;37.40;14.83;;;;;;;15.66;100.00;100335.03;31245652;28;20197;-75
2023/03/22 06:42:30;;;;;;;29.23;15.63;;;;;;;16.31;100.00;100350.53;31217279;28;20058;-74
2023/03/22 06:57:32;;;;;;;41.63;18.55;;;;;;;15.76;100.00;100355.00;31206810;28;20099;-73
2023/03/22 07:12:34;;;;;;;31.17;14.57;;;;;;;16.20;100.00;100365.88;31190449;28;20468;-74
2023/03/22 07:27:36;;;;;;;25.60;12.97;;;;;;;17.05;100.00;100359.72;31232749;28;20048;-83
2023/03/22 07:42:38;;;;;;;24.20;12.80;;;;;;;18.55;100.00;100372.97;31255587;28;20096;-88
2023/03/22 07:57:40;;;;;;;24.70;12.63;;;;;;;19.95;100.00;100362.72;31203199;28;20053;-72
2023/03/22 08:12:43;;;;;;;20.38;12.50;;;;;;;20.53;88.01;100364.63;31169067;28;20053;-75
2023/03/22 08:27:46;;;;;;;29.55;13.60;;;;;;;21.70;73.31;100371.53;31167647;28;20099;-74
2023/03/22 08:42:49;;;;;;;17.63;9.95;;;;;;;21.88;70.29;100369.66;31194402;28;20053;-73
2023/03/22 08:57:51;;;;;;;26.43;11.87;;;;;;;19.68;69.04;100374.78;31178770;28;20046;-74
2023/03/22 09:12:53;;;;;;;18.60;10.38;;;;;;;19.39;73.49;100361.72;31165657;28;20053;-78
2023/03/22 09:27:55;;;;;;;21.73;10.38;;;;;;;20.81;68.42;100359.47;31186301;28;20046;-79
2023/03/22 09:43:01;;;;;;;19.20;10.88;;;;;;;21.02;62.18;100352.69;31209332;28;20125;-75
2023/03/22 09:58:36;;;;;;;14.73;8.30;;;;;;;21.46;51.88;100350.94;31198615;28;20053;-74
2023/03/22 10:13:55;;;;;;;20.55;8.98;;;;;;;22.70;50.60;100349.34;31193673;28;20054;-75
2023/03/22 10:29:02;;;;;;;14.15;9.07;;;;;;;21.61;53.27;100354.34;31174868;28;20569;-75
2023/03/22 10:44:06;;;;;;;21.33;8.32;;;;;;;21.75;54.09;100331.34;31193714;28;20054;-77
2023/03/22 10:59:28;;;;;;;12.47;6.90;;;;;;;20.92;52.27;100314.72;31189226;28;20139;-77
2023/03/22 11:14:35;;;;;;;15.10;6.53;;;;;;;21.68;49.52;100298.66;31212193;28;20049;-72
2023/03/22 11:29:49;;;;;;;11.77;6.68;;;;;;;22.33;47.97;100290.59;31190905;28;20053;-77
2023/03/22 11:44:54;;;;;;;13.15;6.95;;;;;;;24.21;43.71;100287.88;31187851;28;20360;-75
2023/03/22 12:00:06;;;;;;;12.13;6.28;;;;;;;24.53;39.78;100280.75;31168965;28;20096;-71
2023/03/22 12:15:12;;;;;;;11.77;6.30;;;;;;;22.00;42.28;100286.34;31196017;28;20042;-72
2023/03/22 12:30:24;;;;;;;11.00;5.53;;;;;;;20.35;44.10;100279.38;31204162;28;20049;-72
2023/03/22 12:45:31;;;;;;;7.97;4.07;;;;;;;19.23;46.62;100277.59;31185351;28;20050;-74
2023/03/22 13:01:10;;;;;;;8.25;4.63;;;;;;;18.96;46.95;100277.84;31206316;28;20056;-74
2023/03/22 13:16:15;;;;;;;13.57;4.53;;;;;;;18.59;47.26;100267.16;31193246;28;20469;-74
2023/03/22 13:32:01;;;;;;;;;;;;;;;;;;;;;
2023/03/22 13:47:27;;;;;;;10.40;4.95;;;;;;;18.81;47.37;100257.81;31210064;28;20048;-76
2023/03/22 14:02:35;;;;;;;6.53;3.67;;;;;;;18.55;46.28;100263.78;31202321;28;20487;-80
2023/03/22 14:17:57;;;;;;;6.28;3.85;;;;;;;18.15;48.18;100252.44;31181193;28;20049;-79
2023/03/22 14:33:04;;;;;;;23.77;14.00;;;;;;;18.09;48.69;100249.56;31198937;28;20430;-78
2023/03/22 14:48:24;;;;;;;12.43;6.07;;;;;;;17.85;49.23;100248.75;31179126;28;20124;-73
2023/03/22 15:03:30;;;;;;;7.80;5.03;;;;;;;17.66;51.47;100259.06;31165739;28;20107;-77
2023/03/22 15:18:33;;;;;;;11.83;5.80;;;;;;;17.33;52.23;100267.97;31169896;28;20097;-76
2023/03/22 15:33:36;;;;;;;12.70;5.30;;;;;;;17.21;56.62;100270.88;31171531;28;20049;-76
2023/03/22 15:48:57;;;;;;;14.80;6.10;;;;;;;16.74;61.88;100282.31;31167197;28;20062;-73
2023/03/22 16:04:08;;;;;;;10.17;5.60;;;;;;;16.30;66.35;100287.97;31151556;28;20392;-75
2023/03/22 16:19:09;;;;;;;13.13;4.90;;;;;;;16.12;69.29;100282.47;31172367;28;20566;-72
2023/03/22 16:34:10;;;;;;;15.93;5.20;;;;;;;15.92;73.33;100296.53;31177755;28;20053;-72
2023/03/22 16:49:11;;;;;;;14.53;5.80;;;;;;;15.85;75.27;100308.50;31167364;28;20056;-76
2023/03/22 17:04:11;;;;;;;21.90;8.17;;;;;;;15.68;78.04;100315.44;31173827;28;20454;-74
2023/03/22 17:19:12;;;;;;;24.13;8.73;;;;;;;15.36;82.74;100319.28;31172994;28;20061;-74
2023/03/22 17:34:14;;;;;;;24.10;8.63;;;;;;;15.26;88.93;100321.22;31104806;28;26324;-73
2023/03/22 17:49:15;;;;;;;25.90;11.77;;;;;;;15.11;94.33;100322.94;31133284;28;20064;-76
2023/03/22 18:04:15;;;;;;;24.38;11.20;;;;;;;15.04;96.55;100336.06;31174538;28;20593;-74
2023/03/22 18:19:16;;;;;;;29.40;13.43;;;;;;;14.92;100.00;100334.91;31181908;28;20042;-75
2023/03/22 18:34:18;;;;;;;19.57;11.03;;;;;;;14.76;100.00;100326.84;31205819;28;20382;-74
2023/03/22 18:49:20;;;;;;;24.73;10.80;;;;;;;14.49;100.00;100332.81;31203464;28;20053;-73
2023/03/22 19:04:21;;;;;;;22.77;11.80;;;;;;;14.44;100.00;100323.19;31195747;28;20136;-73
2023/03/22 19:19:22;;;;;;;27.33;12.30;;;;;;;14.23;100.00;100327.34;31202261;28;20387;-73
2023/03/22 19:34:25;;;;;;;27.55;11.18;;;;;;;13.95;100.00;100320.78;31151347;28;20104;-73
2023/03/22 19:49:26;;;;;;;61.70;25.83;;;;;;;13.88;100.00;100321.00;31157172;28;20046;-75
2023/03/22 20:04:26;;;;;;;22.50;11.53;;;;;;;13.76;100.00;100327.19;31149318;28;20496;-75
2023/03/22 20:19:29;;;;;;;36.23;16.03;;;;;;;13.58;100.00;100332.41;31182648;28;20484;-74
2023/03/22 20:34:30;;;;;;;36.20;15.27;;;;;;;13.53;100.00;100324.75;31195769;28;20302;-75
2023/03/22 20:49:31;;;;;;;23.47;12.10;;;;;;;13.60;100.00;100327.28;31206177;28;20538;-75
2023/03/22 21:04:32;;;;;;;22.63;11.20;;;;;;;13.64;100.00;100325.22;31196024;28;20302;-74
2023/03/22 21:19:33;;;;;;;16.50;8.13;;;;;;;13.56;100.00;100321.16;31192364;28;20559;-75
2023/03/22 21:34:33;;;;;;;19.03;8.07;;;;;;;13.42;100.00;100321.56;31215829;28;20079;-77
2023/03/22 21:49:34;;;;;;;17.43;7.70;;;;;;;13.28;100.00;100320.75;31211760;28;20057;-75
2023/03/22 22:04:36;;;;;;;14.80;7.70;;;;;;;13.09;100.00;100318.91;31182565;28;20063;-74
2023/03/22 22:19:38;;;;;;;14.23;6.90;;;;;;;12.99;100.00;100320.69;31207207;28;20057;-74
2023/03/22 22:34:38;;;;;;;18.43;9.80;;;;;;;12.87;100.00;100332.31;31170974;28;20069;-74
2023/03/22 22:49:39;;;;;;;28.17;13.23;;;;;;;12.56;100.00;100331.91;31184985;28;20133;-74
2023/03/22 23:04:40;;;;;;;30.47;14.03;;;;;;;12.32;100.00;100338.72;31190410;28;20045;-72
2023/03/22 23:19:41;;;;;;;35.63;15.53;;;;;;;12.08;100.00;100334.59;31193885;28;20050;-73
2023/03/22 23:34:41;;;;;;;31.00;16.00;;;;;;;11.89;100.00;100345.09;31195899;28;20061;-73
2023/03/22 23:49:42;;;;;;;31.10;15.30;;;;;;;12.01;100.00;100334.75;31199187;28;20050;-75
